createdAt,value
2023-02-13T00:00:25.741Z,103273.06
2023-02-13T00:03:10.807Z,103271.34
2023-02-13T00:05:55.630Z,103279.25
2023-02-13T00:08:40.919Z,103281.72
2023-02-13T00:11:25.687Z,103272.19
2023-02-13T00:14:10.855Z,103271.53
2023-02-13T00:16:55.702Z,103270.53
2023-02-13T00:19:40.943Z,103270.28
2023-02-13T00:22:25.857Z,103278.31
2023-02-13T00:25:11.635Z,103270.47
2023-02-13T00:27:56.928Z,103272.22
2023-02-13T00:30:41.907Z,103270.47
2023-02-13T00:33:26.846Z,103271.63
2023-02-13T00:36:15.628Z,103270.38
2023-02-13T00:39:00.602Z,103267.78
2023-02-13T00:41:45.772Z,103275.28
2023-02-13T00:44:30.777Z,103270.97
2023-02-13T00:47:15.639Z,103264.56
2023-02-13T00:50:01.361Z,103268.88
2023-02-13T00:52:46.122Z,103257.78
2023-02-13T00:55:31.432Z,103264.81
2023-02-13T00:58:18.224Z,103260.28
2023-02-13T01:01:03.659Z,103255.72
2023-02-13T01:03:48.587Z,103264.47
2023-02-13T01:06:33.787Z,103256.66
2023-02-13T01:09:18.567Z,103248.75
2023-02-13T01:12:03.512Z,103252.25
2023-02-13T01:14:48.242Z,103246.97
2023-02-13T01:17:33.232Z,103252.75
2023-02-13T01:20:18.165Z,103245.81
2023-02-13T01:23:03.545Z,103243.22
2023-02-13T01:25:51.504Z,103241.50
2023-02-13T01:28:36.768Z,103244.97
2023-02-13T01:31:22.387Z,103244.28
2023-02-13T01:34:07.410Z,103238.97
2023-02-13T01:36:52.483Z,103233.09
2023-02-13T01:39:37.317Z,103233.03
2023-02-13T01:42:27.516Z,103232.25
2023-02-13T01:45:23.395Z,103226.97
2023-02-13T01:48:20.293Z,103225.31
2023-02-13T01:51:11.316Z,103227.72
2023-02-13T01:54:02.134Z,103219.09
2023-02-13T01:56:51.984Z,103214.94
2023-02-13T02:00:06.751Z,103221.09
2023-02-13T02:02:58.383Z,103219.25
2023-02-13T02:05:43.642Z,103223.53
2023-02-13T02:08:31.178Z,103229.59
2023-02-13T02:11:25.629Z,103224.63
2023-02-13T02:14:10.945Z,103233.91
2023-02-13T02:16:56.801Z,103227.16
2023-02-13T02:19:49.433Z,103232.06
2023-02-13T02:22:46.587Z,103229.47
2023-02-13T02:25:50.219Z,103237.97
2023-02-13T02:29:23.845Z,103228.59
2023-02-13T02:32:36.287Z,103230.16
2023-02-13T02:35:46.775Z,103225.06
2023-02-13T02:38:43.896Z,103210.59
2023-02-13T02:41:45.161Z,103218.63
2023-02-13T02:44:56.170Z,103213.59
2023-02-13T02:48:18.225Z,103210.63
2023-02-13T02:51:06.734Z,103207.03
2023-02-13T02:54:27.195Z,103205.28
2023-02-13T02:57:24.618Z,103202.56
2023-02-13T03:00:29.327Z,103196.34
2023-02-13T03:03:39.068Z,103204.25
2023-02-13T03:06:50.519Z,103207.47
2023-02-13T03:09:58.942Z,103201.66
2023-02-13T03:13:09.529Z,103204.25
2023-02-13T03:16:17.909Z,103200.75
2023-02-13T03:19:21.638Z,103193.88
2023-02-13T03:22:32.670Z,103188.63
2023-02-13T03:25:35.126Z,103197.63
2023-02-13T03:28:52.411Z,103188.69
2023-02-13T03:31:54.312Z,103198.31
2023-02-13T03:35:08.691Z,103198.88
2023-02-13T03:38:01.244Z,103199.94
2023-02-13T03:41:19.431Z,103194.69
2023-02-13T03:44:34.697Z,103199.81
2023-02-13T03:47:20.052Z,103196.50
2023-02-13T03:50:09.170Z,103199.81
2023-02-13T03:53:06.969Z,103196.06
2023-02-13T03:56:11.909Z,103201.25
2023-02-13T03:59:17.272Z,103202.47
2023-02-13T04:02:12.897Z,103206.16
2023-02-13T04:05:17.551Z,103208.94
2023-02-13T04:08:02.776Z,103194.84
2023-02-13T04:11:00.659Z,103206.53
2023-02-13T04:13:52.742Z,103215.19
2023-02-13T04:16:42.406Z,103215.00
2023-02-13T04:19:28.106Z,103208.16
2023-02-13T04:22:13.911Z,103212.34
2023-02-13T04:24:58.495Z,103214.00
2023-02-13T04:27:43.639Z,103210.47
2023-02-13T04:30:28.637Z,103210.56
2023-02-13T04:33:14.232Z,103217.69
2023-02-13T04:35:59.417Z,103212.56
2023-02-13T04:38:45.543Z,103216.72
2023-02-13T04:41:30.580Z,103211.63
2023-02-13T04:44:15.263Z,103201.78
2023-02-13T04:47:00.054Z,103207.56
2023-02-13T04:49:44.799Z,103203.91
2023-02-13T04:52:29.852Z,103203.03
2023-02-13T04:55:14.716Z,103204.66
2023-02-13T04:57:59.672Z,103197.78
2023-02-13T05:00:44.430Z,103196.88
2023-02-13T05:03:29.847Z,103190.13
2023-02-13T05:06:14.854Z,103189.09
2023-02-13T05:08:59.945Z,103192.53
2023-02-13T05:11:45.370Z,103193.41
2023-02-13T05:14:30.093Z,103194.94
2023-02-13T05:17:15.465Z,103200.88
2023-02-13T05:20:00.248Z,103197.47
2023-02-13T05:23:04.919Z,103198.34
2023-02-13T05:25:50.638Z,103199.19
2023-02-13T05:28:54.540Z,103203.53
2023-02-13T05:31:39.673Z,103197.56
2023-02-13T05:34:26.689Z,103191.97
2023-02-13T05:37:11.613Z,103196.22
2023-02-13T05:39:56.432Z,103196.97
2023-02-13T05:42:41.727Z,103198.59
2023-02-13T05:45:26.489Z,103193.22
2023-02-13T05:48:11.969Z,103192.94
2023-02-13T05:50:57.374Z,103201.53
2023-02-13T05:53:42.298Z,103207.69
2023-02-13T05:56:27.192Z,103206.72
2023-02-13T05:59:12.323Z,103209.47
2023-02-13T06:01:57.571Z,103205.16
2023-02-13T06:04:43.073Z,103207.75
2023-02-13T06:07:27.659Z,103210.13
2023-02-13T06:10:12.664Z,103205.88
2023-02-13T06:12:58.154Z,103217.03
2023-02-13T06:15:46.333Z,103216.97
2023-02-13T06:18:31.333Z,103225.69
2023-02-13T06:21:16.410Z,103227.69
2023-02-13T06:24:01.577Z,103221.78
2023-02-13T06:26:46.350Z,103225.78
2023-02-13T06:29:33.244Z,103225.16
2023-02-13T06:32:18.352Z,103230.19
2023-02-13T06:35:05.581Z,103225.78
2023-02-13T06:37:50.931Z,103229.16
2023-02-13T06:40:35.652Z,103237.91
2023-02-13T06:43:20.768Z,103232.88
2023-02-13T06:46:08.334Z,103239.66
2023-02-13T06:48:54.300Z,103233.50
2023-02-13T06:51:39.214Z,103235.03
2023-02-13T06:54:37.117Z,103235.38
2023-02-13T06:57:32.989Z,103237.81
2023-02-13T07:00:19.557Z,103247.16
2023-02-13T07:03:06.741Z,103252.53
2023-02-13T07:05:52.208Z,103251.94
2023-02-13T07:08:37.050Z,103247.53
2023-02-13T07:11:25.318Z,103259.22
2023-02-13T07:14:10.229Z,103251.19
2023-02-13T07:16:55.757Z,103251.44
2023-02-13T07:19:40.372Z,103255.88
2023-02-13T07:22:25.589Z,103256.00
2023-02-13T07:25:10.218Z,103255.16
2023-02-13T07:27:55.957Z,103253.44
2023-02-13T07:30:40.686Z,103247.59
2023-02-13T07:33:26.199Z,103253.44
2023-02-13T07:36:11.114Z,103250.16
2023-02-13T07:38:55.993Z,103248.41
2023-02-13T07:41:40.860Z,103256.78
2023-02-13T07:44:25.871Z,103266.41
2023-02-13T07:47:11.288Z,103260.41
2023-02-13T07:49:56.082Z,103267.13
2023-02-13T07:52:42.076Z,103263.75
2023-02-13T07:55:28.860Z,103275.84
2023-02-13T07:58:14.378Z,103267.25
2023-02-13T08:00:59.137Z,103267.34
2023-02-13T08:03:48.572Z,103271.00
2023-02-13T08:06:33.198Z,103271.44
2023-02-13T08:09:53.280Z,103274.53
2023-02-13T08:12:38.548Z,103286.59
2023-02-13T08:15:23.873Z,103280.44
2023-02-13T08:18:08.863Z,103273.97
2023-02-13T08:20:53.742Z,103267.97
2023-02-13T08:23:38.831Z,103276.69
2023-02-13T08:26:23.580Z,103279.78
2023-02-13T08:29:08.837Z,103283.81
2023-02-13T08:31:54.078Z,103282.94
2023-02-13T08:34:39.637Z,103281.22
2023-02-13T08:37:24.776Z,103281.47
2023-02-13T08:40:10.918Z,103287.81
2023-02-13T08:43:03.743Z,103286.97
2023-02-13T08:45:48.526Z,103282.66
2023-02-13T08:48:33.859Z,103282.91
2023-02-13T08:51:18.788Z,103284.00
2023-02-13T08:54:04.179Z,103278.41
2023-02-13T08:56:48.931Z,103287.97
2023-02-13T08:59:33.800Z,103276.75
2023-02-13T09:02:18.614Z,103287.13
2023-02-13T09:05:04.908Z,103282.97
2023-02-13T09:07:50.010Z,103288.28
2023-02-13T09:10:35.001Z,103284.03
2023-02-13T09:13:20.329Z,103284.28
2023-02-13T09:16:07.223Z,103287.00
2023-02-13T09:18:53.047Z,103292.28
2023-02-13T09:21:37.837Z,103280.25
2023-02-13T09:24:22.705Z,103282.06
2023-02-13T09:27:08.573Z,103279.63
2023-02-13T09:29:53.361Z,103270.94
2023-02-13T09:32:41.146Z,103273.84
2023-02-13T09:35:26.232Z,103275.75
2023-02-13T09:38:11.721Z,103273.84
2023-02-13T09:41:02.329Z,103278.38
2023-02-13T09:44:00.510Z,103279.41
2023-02-13T09:46:46.593Z,103276.25
2023-02-13T09:49:35.333Z,103282.22
2023-02-13T09:52:20.538Z,103288.00
2023-02-13T09:55:32.271Z,103283.94
2023-02-13T09:58:32.499Z,103282.25
2023-02-13T10:01:26.488Z,103280.50
2023-02-13T10:04:23.879Z,103277.38
2023-02-13T10:07:23.048Z,103276.13
2023-02-13T10:10:28.130Z,103290.09
2023-02-13T10:13:50.728Z,103294.41
2023-02-13T10:16:41.912Z,103298.16
2023-02-13T10:19:40.490Z,103292.06
2023-02-13T10:22:38.724Z,103291.19
2023-02-13T10:25:44.075Z,103286.13
2023-02-13T10:28:42.813Z,103289.16
2023-02-13T10:31:28.052Z,103291.03
2023-02-13T10:34:17.430Z,103280.81
2023-02-13T10:37:03.232Z,103287.03
2023-02-13T10:39:54.023Z,103282.94
2023-02-13T10:43:07.490Z,103287.25
2023-02-13T10:46:19.060Z,103276.84
2023-02-13T10:49:26.196Z,103279.59
2023-02-13T10:52:48.906Z,103272.59
2023-02-13T10:55:55.324Z,103270.81
2023-02-13T10:58:46.485Z,103265.63
2023-02-13T11:01:47.559Z,103269.38
2023-02-13T11:04:33.175Z,103262.47
2023-02-13T11:07:22.175Z,103259.88
2023-02-13T11:10:18.901Z,103264.22
2023-02-13T11:13:17.256Z,103267.06
2023-02-13T11:16:07.424Z,103270.72
2023-02-13T11:18:53.215Z,103261.22
2023-02-13T11:21:38.648Z,103263.09
2023-02-13T11:24:26.576Z,103263.06
2023-02-13T11:27:13.777Z,103271.63
2023-02-13T11:30:02.194Z,103264.06
2023-02-13T11:32:58.598Z,103257.03
2023-02-13T11:35:46.324Z,103255.22
2023-02-13T11:38:31.241Z,103258.94
2023-02-13T11:41:19.328Z,103251.06
2023-02-13T11:44:05.520Z,103251.09
2023-02-13T11:46:53.616Z,103248.47
2023-02-13T11:49:40.081Z,103257.28
2023-02-13T11:52:29.088Z,103243.66
2023-02-13T11:55:35.537Z,103245.50
2023-02-13T11:58:27.698Z,103241.97
2023-02-13T12:01:31.174Z,103238.69
2023-02-13T12:04:21.533Z,103241.59
2023-02-13T12:07:26.848Z,103245.78
2023-02-13T12:10:15.294Z,103247.84
2023-02-13T12:13:15.274Z,103235.56
2023-02-13T12:16:04.559Z,103232.13
2023-02-13T12:18:53.744Z,103231.44
2023-02-13T12:22:05.454Z,103225.50
2023-02-13T12:25:24.381Z,103226.97
2023-02-13T12:28:17.072Z,103230.47
2023-02-13T12:31:30.481Z,103231.19
2023-02-13T12:34:28.536Z,103230.38
2023-02-13T12:37:28.861Z,103226.94
2023-02-13T12:40:42.992Z,103228.41
2023-02-13T12:44:07.324Z,103217.03
2023-02-13T12:47:05.292Z,103208.50
2023-02-13T12:50:21.903Z,103204.16
2023-02-13T12:53:16.683Z,103206.00
2023-02-13T12:56:10.654Z,103207.88
2023-02-13T12:59:02.303Z,103196.03
2023-02-13T13:02:04.604Z,103188.94
2023-02-13T13:05:27.254Z,103191.75
2023-02-13T13:08:32.438Z,103191.84
2023-02-13T13:11:37.653Z,103192.59
2023-02-13T13:14:39.949Z,103196.28
2023-02-13T13:17:36.168Z,103185.03
2023-02-13T13:21:02.192Z,103183.41
2023-02-13T13:24:00.197Z,103188.69
2023-02-13T13:26:50.077Z,103187.66
2023-02-13T13:30:00.868Z,103192.81
2023-02-13T13:33:11.658Z,103190.16
2023-02-13T13:36:33.199Z,103188.59
2023-02-13T13:39:38.689Z,103186.84
2023-02-13T13:42:47.556Z,103194.78
2023-02-13T13:45:57.357Z,103190.06
2023-02-13T13:49:04.141Z,103182.38
2023-02-13T13:51:51.323Z,103174.72
2023-02-13T13:54:37.174Z,103172.00
2023-02-13T13:57:24.487Z,103173.84
2023-02-13T14:00:12.085Z,103180.69
2023-02-13T14:03:17.348Z,103177.06
2023-02-13T14:06:14.195Z,103170.94
2023-02-13T14:09:02.099Z,103174.63
2023-02-13T14:11:47.470Z,103161.53
2023-02-13T14:14:35.350Z,103166.56
2023-02-13T14:17:45.355Z,103167.41
2023-02-13T14:20:37.539Z,103165.63
2023-02-13T14:23:27.110Z,103161.25
2023-02-13T14:26:15.239Z,103167.00
2023-02-13T14:29:25.351Z,103164.50
2023-02-13T14:32:19.761Z,103167.81
2023-02-13T14:35:20.690Z,103163.47
2023-02-13T14:38:17.822Z,103162.75
2023-02-13T14:41:03.838Z,103174.69
2023-02-13T14:43:53.735Z,103165.34
2023-02-13T14:46:41.155Z,103168.63
2023-02-13T14:49:30.476Z,103167.81
2023-02-13T14:52:43.395Z,103176.38
2023-02-13T14:55:31.225Z,103164.44
2023-02-13T14:58:23.799Z,103159.22
2023-02-13T15:01:14.477Z,103159.41
2023-02-13T15:04:07.803Z,103163.56
2023-02-13T15:06:55.205Z,103160.13
2023-02-13T15:09:47.268Z,103159.28
2023-02-13T15:12:35.488Z,103155.44
2023-02-13T15:15:24.795Z,103156.31
2023-02-13T15:18:19.784Z,103152.69
2023-02-13T15:21:04.975Z,103156.63
2023-02-13T15:23:57.662Z,103153.72
2023-02-13T15:26:44.498Z,103141.50
2023-02-13T15:29:44.229Z,103145.78
2023-02-13T15:32:36.883Z,103146.69
2023-02-13T15:35:28.834Z,103144.75
2023-02-13T15:38:24.630Z,103149.47
2023-02-13T15:41:17.861Z,103143.91
2023-02-13T15:44:03.939Z,103136.09
2023-02-13T15:46:52.116Z,103140.47
2023-02-13T15:49:47.471Z,103147.03
2023-02-13T15:52:36.843Z,103135.69
2023-02-13T15:55:25.433Z,103140.94
2023-02-13T15:58:13.494Z,103142.63
2023-02-13T16:01:07.209Z,103132.31
2023-02-13T16:04:03.281Z,103135.28
2023-02-13T16:06:50.539Z,103129.38
2023-02-13T16:09:36.741Z,103126.94
2023-02-13T16:12:28.849Z,103120.78
2023-02-13T16:15:18.437Z,103119.81
2023-02-13T16:18:06.141Z,103121.47
2023-02-13T16:20:56.452Z,103118.75
2023-02-13T16:23:45.764Z,103119.63
2023-02-13T16:26:31.436Z,103115.06
2023-02-13T16:29:20.696Z,103116.97
2023-02-13T16:32:18.088Z,103120.59
2023-02-13T16:35:21.489Z,103121.28
2023-02-13T16:38:39.915Z,103127.22
2023-02-13T16:41:32.714Z,103130.56
2023-02-13T16:44:32.864Z,103126.50
2023-02-13T16:47:24.130Z,103127.41
2023-02-13T16:50:18.449Z,103118.50
2023-02-13T16:53:04.976Z,103123.66
2023-02-13T16:56:04.679Z,103126.28
2023-02-13T16:58:50.032Z,103137.78
2023-02-13T17:01:38.354Z,103136.03
2023-02-13T17:04:25.210Z,103143.72
2023-02-13T17:07:19.402Z,103141.91
2023-02-13T17:10:05.739Z,103144.53
2023-02-13T17:12:51.765Z,103148.47
2023-02-13T17:15:37.524Z,103148.53
2023-02-13T17:18:22.735Z,103153.72
2023-02-13T17:21:10.597Z,103150.16
2023-02-13T17:23:55.691Z,103151.00
2023-02-13T17:26:40.590Z,103162.97
2023-02-13T17:29:26.062Z,103160.47
2023-02-13T17:32:18.148Z,103161.97
2023-02-13T17:35:03.023Z,103154.81
2023-02-13T17:37:48.367Z,103154.69
2023-02-13T17:40:35.592Z,103155.50
2023-02-13T17:43:20.975Z,103156.44
2023-02-13T17:46:06.674Z,103151.91
2023-02-13T17:48:51.897Z,103156.34
2023-02-13T17:51:40.123Z,103154.59
2023-02-13T17:54:25.201Z,103160.75
2023-02-13T17:57:12.164Z,103151.06
2023-02-13T17:59:57.009Z,103149.41
2023-02-13T18:02:42.774Z,103138.97
2023-02-13T18:05:28.903Z,103151.94
2023-02-13T18:08:13.795Z,103147.34
2023-02-13T18:10:59.018Z,103147.66
2023-02-13T18:13:48.318Z,103140.75
2023-02-13T18:16:33.435Z,103140.47
2023-02-13T18:19:23.475Z,103143.91
2023-02-13T18:22:09.245Z,103144.13
2023-02-13T18:24:54.717Z,103143.06
2023-02-13T18:27:40.153Z,103145.72
2023-02-13T18:30:25.353Z,103146.16
2023-02-13T18:33:10.699Z,103149.69
2023-02-13T18:36:03.698Z,103139.22
2023-02-13T18:38:51.702Z,103142.94
2023-02-13T18:41:39.029Z,103139.31
2023-02-13T18:44:28.664Z,103142.41
2023-02-13T18:47:15.328Z,103144.53
2023-02-13T18:50:00.604Z,103137.75
2023-02-13T18:52:46.852Z,103139.72
2023-02-13T18:55:33.477Z,103136.75
2023-02-13T18:58:18.754Z,103127.47
2023-02-13T19:01:12.182Z,103133.53
2023-02-13T19:03:57.186Z,103138.81
2023-02-13T19:06:43.453Z,103136.94
2023-02-13T19:09:28.372Z,103124.88
2023-02-13T19:12:13.360Z,103134.19
2023-02-13T19:14:58.690Z,103136.47
2023-02-13T19:17:46.580Z,103136.34
2023-02-13T19:20:31.852Z,103138.84
2023-02-13T19:23:20.603Z,103133.97
2023-02-13T19:26:13.104Z,103136.59
2023-02-13T19:28:58.689Z,103138.06
2023-02-13T19:31:43.599Z,103126.34
2023-02-13T19:34:31.436Z,103136.38
2023-02-13T19:37:17.447Z,103137.00
2023-02-13T19:40:08.410Z,103138.63
2023-02-13T19:42:53.506Z,103138.72
2023-02-13T19:45:40.315Z,103139.63
2023-02-13T19:48:25.439Z,103134.13
2023-02-13T19:51:13.405Z,103133.88
2023-02-13T19:54:06.245Z,103138.19
2023-02-13T19:56:51.785Z,103131.81
2023-02-13T19:59:37.875Z,103141.13
2023-02-13T20:02:23.183Z,103135.00
2023-02-13T20:05:09.792Z,103134.41
2023-02-13T20:07:54.861Z,103135.38
2023-02-13T20:10:47.743Z,103136.53
2023-02-13T20:13:32.985Z,103138.72
2023-02-13T20:16:18.365Z,103136.03
2023-02-13T20:19:08.583Z,103137.38
2023-02-13T20:21:55.594Z,103140.78
2023-02-13T20:24:40.814Z,103142.53
2023-02-13T20:27:25.496Z,103148.13
2023-02-13T20:30:15.404Z,103147.16
2023-02-13T20:33:00.648Z,103147.81
2023-02-13T20:35:47.682Z,103154.75
2023-02-13T20:38:34.210Z,103148.81
2023-02-13T20:41:22.028Z,103154.09
2023-02-13T20:44:11.880Z,103148.13
2023-02-13T20:46:59.615Z,103143.88
2023-02-13T20:49:45.221Z,103146.31
2023-02-13T20:52:30.300Z,103141.13
2023-02-13T20:55:15.890Z,103140.44
2023-02-13T20:58:09.532Z,103132.81
2023-02-13T21:00:54.967Z,103134.88
2023-02-13T21:03:41.532Z,103145.56
2023-02-13T21:06:32.232Z,103142.69
2023-02-13T21:09:17.765Z,103135.66
2023-02-13T21:12:03.386Z,103145.91
2023-02-13T21:14:48.226Z,103140.63
2023-02-13T21:17:33.580Z,103148.22
2023-02-13T21:20:18.726Z,103144.72
2023-02-13T21:23:05.849Z,103144.63
2023-02-13T21:25:50.989Z,103143.63
2023-02-13T21:28:39.221Z,103143.59
2023-02-13T21:31:27.701Z,103141.16
2023-02-13T21:34:19.131Z,103151.06
2023-02-13T21:37:04.290Z,103154.13
2023-02-13T21:39:50.091Z,103149.59
2023-02-13T21:42:36.390Z,103148.47
2023-02-13T21:45:21.788Z,103153.56
2023-02-13T21:48:07.422Z,103147.09
2023-02-13T21:50:52.349Z,103157.19
2023-02-13T21:53:38.292Z,103156.31
2023-02-13T21:56:26.634Z,103156.31
2023-02-13T21:59:15.514Z,103157.69
2023-02-13T22:02:02.566Z,103149.44
2023-02-13T22:04:47.577Z,103150.13
2023-02-13T22:07:53.966Z,103148.31
2023-02-13T22:10:40.116Z,103152.09
2023-02-13T22:13:25.527Z,103146.72
2023-02-13T22:16:13.362Z,103151.56
2023-02-13T22:18:58.935Z,103148.66
2023-02-13T22:21:44.338Z,103146.59
2023-02-13T22:24:29.594Z,103151.13
2023-02-13T22:27:15.998Z,103153.25
2023-02-13T22:30:00.985Z,103159.38
2023-02-13T22:32:45.824Z,103160.34
2023-02-13T22:35:31.814Z,103163.03
2023-02-13T22:38:16.992Z,103159.91
2023-02-13T22:41:11.696Z,103165.22
2023-02-13T22:43:57.322Z,103168.25
2023-02-13T22:46:42.190Z,103163.03
2023-02-13T22:49:27.200Z,103159.97
2023-02-13T22:52:12.199Z,103161.19
2023-02-13T22:54:59.665Z,103155.41
2023-02-13T22:57:46.771Z,103160.06
2023-02-13T23:00:32.292Z,103162.53
2023-02-13T23:03:17.495Z,103161.94
2023-02-13T23:06:07.112Z,103153.03
2023-02-13T23:08:53.447Z,103156.28
2023-02-13T23:11:57.890Z,103152.75
2023-02-13T23:14:43.063Z,103154.41
2023-02-13T23:17:46.641Z,103156.91
2023-02-13T23:20:32.264Z,103159.97
2023-02-13T23:23:17.136Z,103154.53
2023-02-13T23:26:08.192Z,103161.78
2023-02-13T23:28:53.112Z,103163.28
2023-02-13T23:31:38.190Z,103165.13
2023-02-13T23:34:23.600Z,103168.75
2023-02-13T23:37:09.305Z,103170.53
2023-02-13T23:39:54.112Z,103172.56
2023-02-13T23:42:39.269Z,103173.81
2023-02-13T23:45:24.328Z,103174.19
2023-02-13T23:48:12.119Z,103168.97
2023-02-13T23:50:57.542Z,103170.34
2023-02-13T23:53:42.491Z,103162.25
2023-02-13T23:56:27.410Z,103163.00
2023-02-13T23:59:12.347Z,103153.75
